sensor_id;sensor_type;location;lat;lon;timestamp;pressure;altitude;pressure_sealevel;temperature;humidity
75646;BME280;64237;52.438;13.240;2023-10-13T00:01:33;100980.84;;;13.26;100.00
75646;BME280;64237;52.438;13.240;2023-10-13T00:03:59;100979.66;;;13.22;100.00
75646;BME280;64237;52.438;13.240;2023-10-13T00:06:24;100970.47;;;13.21;100.00
75646;BME280;64237;52.438;13.240;2023-10-13T00:08:52;100965.75;;;13.22;100.00
75646;BME280;64237;52.438;13.240;2023-10-13T00:11:17;100977.16;;;13.20;100.00
75646;BME280;64237;52.438;13.240;2023-10-13T00:13:43;100972.94;;;13.18;100.00
75646;BME280;64237;52.438;13.240;2023-10-13T00:16:20;100970.75;;;13.20;100.00
75646;BME280;64237;52.438;13.240;2023-10-13T00:18:53;100981.28;;;13.18;100.00
75646;BME280;64237;52.438;13.240;2023-10-13T00:21:22;100969.63;;;13.21;100.00
75646;BME280;64237;52.438;13.240;2023-10-13T00:23:57;100976.81;;;13.17;100.00
75646;BME280;64237;52.438;13.240;2023-10-13T00:26:24;100983.94;;;13.13;100.00
75646;BME280;64237;52.438;13.240;2023-10-13T00:28:57;100980.25;;;13.07;100.00
75646;BME280;64237;52.438;13.240;2023-10-13T00:31:36;100976.81;;;13.17;100.00
75646;BME280;64237;52.438;13.240;2023-10-13T00:34:03;100971.28;;;13.17;100.00
75646;BME280;64237;52.438;13.240;2023-10-13T00:36:40;100971.31;;;13.22;100.00
75646;BME280;64237;52.438;13.240;2023-10-13T00:39:34;100965.50;;;13.23;100.00
75646;BME280;64237;52.438;13.240;2023-10-13T00:42:02;100959.09;;;13.23;100.00
75646;BME280;64237;52.438;13.240;2023-10-13T00:44:32;100961.84;;;13.18;100.00
75646;BME280;64237;52.438;13.240;2023-10-13T00:47:09;100958.69;;;13.14;100.00
75646;BME280;64237;52.438;13.240;2023-10-13T00:49:41;100965.72;;;13.17;100.00
75646;BME280;64237;52.438;13.240;2023-10-13T00:52:12;100962.13;;;13.21;100.00
75646;BME280;64237;52.438;13.240;2023-10-13T00:54:38;100958.03;;;13.24;100.00
75646;BME280;64237;52.438;13.240;2023-10-13T00:57:04;100954.59;;;13.17;100.00
75646;BME280;64237;52.438;13.240;2023-10-13T00:59:32;100940.72;;;13.17;100.00
75646;BME280;64237;52.438;13.240;2023-10-13T01:02:01;100948.00;;;13.23;100.00
75646;BME280;64237;52.438;13.240;2023-10-13T01:04:46;100943.28;;;13.23;100.00
75646;BME280;64237;52.438;13.240;2023-10-13T01:07:12;100945.75;;;13.20;100.00
75646;BME280;64237;52.438;13.240;2023-10-13T01:09:41;100950.03;;;13.11;100.00
75646;BME280;64237;52.438;13.240;2023-10-13T01:12:12;100953.91;;;13.10;100.00
75646;BME280;64237;52.438;13.240;2023-10-13T01:14:38;100961.84;;;13.18;100.00
75646;BME280;64237;52.438;13.240;2023-10-13T01:17:03;100947.16;;;13.22;100.00
75646;BME280;64237;52.438;13.240;2023-10-13T01:19:29;100953.56;;;13.23;100.00
75646;BME280;64237;52.438;13.240;2023-10-13T01:21:55;100944.63;;;13.21;100.00
75646;BME280;64237;52.438;13.240;2023-10-13T01:24:32;100953.81;;;13.21;100.00
75646;BME280;64237;52.438;13.240;2023-10-13T01:27:01;100958.94;;;13.13;100.00
75646;BME280;64237;52.438;13.240;2023-10-13T01:29:43;100956.28;;;13.18;100.00
75646;BME280;64237;52.438;13.240;2023-10-13T01:32:14;100947.09;;;13.17;100.00
75646;BME280;64237;52.438;13.240;2023-10-13T01:34:40;100950.13;;;13.16;100.00
75646;BME280;64237;52.438;13.240;2023-10-13T01:37:05;100948.53;;;13.20;100.00
75646;BME280;64237;52.438;13.240;2023-10-13T01:39:31;100952.06;;;13.15;100.00
75646;BME280;64237;52.438;13.240;2023-10-13T01:41:56;100965.22;;;13.20;100.00
75646;BME280;64237;52.438;13.240;2023-10-13T01:44:23;100959.09;;;13.23;100.00
75646;BME280;64237;52.438;13.240;2023-10-13T01:46:49;100963.66;;;13.29;100.00
75646;BME280;64237;52.438;13.240;2023-10-13T01:49:14;100955.81;;;13.26;100.00
75646;BME280;64237;52.438;13.240;2023-10-13T01:51:43;100960.16;;;13.17;100.00
75646;BME280;64237;52.438;13.240;2023-10-13T01:54:08;100951.38;;;13.25;100.00
75646;BME280;64237;52.438;13.240;2023-10-13T01:56:38;100938.31;;;13.25;100.00
75646;BME280;64237;52.438;13.240;2023-10-13T01:59:11;100941.94;;;13.26;100.00
75646;BME280;64237;52.438;13.240;2023-10-13T02:01:38;100930.31;;;13.29;100.00
75646;BME280;64237;52.438;13.240;2023-10-13T02:04:05;100932.31;;;13.33;100.00
75646;BME280;64237;52.438;13.240;2023-10-13T02:06:35;100934.00;;;13.34;100.00
75646;BME280;64237;52.438;13.240;2023-10-13T02:09:07;100928.28;;;13.24;100.00
75646;BME280;64237;52.438;13.240;2023-10-13T02:11:44;100924.75;;;13.29;100.00
75646;BME280;64237;52.438;13.240;2023-10-13T02:14:13;100928.53;;;13.23;100.00
75646;BME280;64237;52.438;13.240;2023-10-13T02:16:42;100925.25;;;13.26;100.00
75646;BME280;64237;52.438;13.240;2023-10-13T02:19:07;100927.16;;;13.20;100.00
75646;BME280;64237;52.438;13.240;2023-10-13T02:21:34;100927.53;;;13.29;100.00
75646;BME280;64237;52.438;13.240;2023-10-13T02:24:08;100920.81;;;13.25;100.00
75646;BME280;64237;52.438;13.240;2023-10-13T02:26:44;100915.19;;;13.20;100.00
75646;BME280;64237;52.438;13.240;2023-10-13T02:29:10;100919.13;;;13.24;100.00
75646;BME280;64237;52.438;13.240;2023-10-13T02:31:42;100919.06;;;13.19;100.00
75646;BME280;64237;52.438;13.240;2023-10-13T02:34:08;100915.25;;;13.25;100.00
75646;BME280;64237;52.438;13.240;2023-10-13T02:36:38;100914.66;;;13.23;100.00
75646;BME280;64237;52.438;13.240;2023-10-13T02:39:17;100908.59;;;13.26;100.00
75646;BME280;64237;52.438;13.240;2023-10-13T02:41:49;100904.47;;;13.28;100.00
75646;BME280;64237;52.438;13.240;2023-10-13T02:44:15;100893.09;;;13.30;100.00
75646;BME280;64237;52.438;13.240;2023-10-13T02:47:01;100887.47;;;13.25;100.00
75646;BME280;64237;52.438;13.240;2023-10-13T02:49:27;100894.78;;;13.31;100.00
75646;BME280;64237;52.438;13.240;2023-10-13T02:51:53;100882.50;;;13.27;100.00
75646;BME280;64237;52.438;13.240;2023-10-13T02:54:24;100883.31;;;13.27;100.00
75646;BME280;64237;52.438;13.240;2023-10-13T02:56:55;100876.75;;;13.33;100.00
75646;BME280;64237;52.438;13.240;2023-10-13T02:59:29;100881.78;;;13.36;100.00
75646;BME280;64237;52.438;13.240;2023-10-13T03:02:16;100883.66;;;13.31;100.00
75646;BME280;64237;52.438;13.240;2023-10-13T03:04:48;100878.69;;;13.33;100.00
75646;BME280;64237;52.438;13.240;2023-10-13T03:07:14;100871.31;;;13.44;100.00
75646;BME280;64237;52.438;13.240;2023-10-13T03:09:50;100857.88;;;13.35;100.00
75646;BME280;64237;52.438;13.240;2023-10-13T03:12:17;100853.16;;;13.36;100.00
75646;BME280;64237;52.438;13.240;2023-10-13T03:14:42;100858.25;;;13.44;100.00
75646;BME280;64237;52.438;13.240;2023-10-13T03:17:13;100856.56;;;13.43;100.00
75646;BME280;64237;52.438;13.240;2023-10-13T03:19:48;100842.03;;;13.36;100.00
75646;BME280;64237;52.438;13.240;2023-10-13T03:22:17;100851.56;;;13.40;100.00
75646;BME280;64237;52.438;13.240;2023-10-13T03:24:44;100839.34;;;13.41;100.00
75646;BME280;64237;52.438;13.240;2023-10-13T03:27:17;100842.66;;;13.43;100.00
75646;BME280;64237;52.438;13.240;2023-10-13T03:29:44;100831.03;;;13.46;100.00
75646;BME280;64237;52.438;13.240;2023-10-13T03:32:15;100830.50;;;13.49;100.00
75646;BME280;64237;52.438;13.240;2023-10-13T03:34:44;100837.19;;;13.48;100.00
75646;BME280;64237;52.438;13.240;2023-10-13T03:37:20;100835.72;;;13.41;100.00
75646;BME280;64237;52.438;13.240;2023-10-13T03:40:12;100828.72;;;13.38;100.00
75646;BME280;64237;52.438;13.240;2023-10-13T03:45:38;100817.63;;;13.38;100.00
75646;BME280;64237;52.438;13.240;2023-10-13T03:48:16;100819.03;;;13.41;100.00
75646;BME280;64237;52.438;13.240;2023-10-13T03:50:53;100806.50;;;13.38;100.00
75646;BME280;64237;52.438;13.240;2023-10-13T03:53:31;100807.13;;;13.45;100.00
75646;BME280;64237;52.438;13.240;2023-10-13T03:56:04;100808.53;;;13.48;100.00
75646;BME280;64237;52.438;13.240;2023-10-13T03:58:56;100804.09;;;13.47;100.00
75646;BME280;64237;52.438;13.240;2023-10-13T04:01:36;100806.59;;;13.48;100.00
75646;BME280;64237;52.438;13.240;2023-10-13T04:04:15;100804.91;;;13.47;100.00
75646;BME280;64237;52.438;13.240;2023-10-13T04:06:43;100796.59;;;13.47;100.00
75646;BME280;64237;52.438;13.240;2023-10-13T04:12:02;100798.84;;;13.50;100.00
75646;BME280;64237;52.438;13.240;2023-10-13T04:14:28;100794.88;;;13.41;100.00
75646;BME280;64237;52.438;13.240;2023-10-13T04:17:12;100805.81;;;13.53;100.00
75646;BME280;64237;52.438;13.240;2023-10-13T04:19:44;100808.28;;;13.49;100.00
75646;BME280;64237;52.438;13.240;2023-10-13T04:22:28;100782.69;;;13.47;100.00
75646;BME280;64237;52.438;13.240;2023-10-13T04:28:11;100778.47;;;13.45;100.00
75646;BME280;64237;52.438;13.240;2023-10-13T04:30:36;100766.00;;;13.47;100.00
75646;BME280;64237;52.438;13.240;2023-10-13T04:33:18;100762.66;;;13.45;100.00
75646;BME280;64237;52.438;13.240;2023-10-13T04:36:05;100765.44;;;13.45;100.00
75646;BME280;64237;52.438;13.240;2023-10-13T04:38:47;100759.28;;;13.43;100.00
75646;BME280;64237;52.438;13.240;2023-10-13T04:41:37;100757.66;;;13.47;100.00
75646;BME280;64237;52.438;13.240;2023-10-13T04:44:18;100760.44;;;13.47;100.00
75646;BME280;64237;52.438;13.240;2023-10-13T04:47:09;100754.38;;;13.50;100.00
75646;BME280;64237;52.438;13.240;2023-10-13T04:49:41;100756.06;;;13.51;100.00
75646;BME280;64237;52.438;13.240;2023-10-13T04:52:12;100746.63;;;13.52;100.00
75646;BME280;64237;52.438;13.240;2023-10-13T04:54:42;100742.72;;;13.53;100.00
75646;BME280;64237;52.438;13.240;2023-10-13T04:57:19;100742.22;;;13.56;100.00
75646;BME280;64237;52.438;13.240;2023-10-13T04:59:48;100739.16;;;13.58;100.00
75646;BME280;64237;52.438;13.240;2023-10-13T05:02:32;100743.88;;;13.57;100.00
75646;BME280;64237;52.438;13.240;2023-10-13T05:05:06;100738.31;;;13.57;100.00
75646;BME280;64237;52.438;13.240;2023-10-13T05:08:07;100737.75;;;13.55;100.00
75646;BME280;64237;52.438;13.240;2023-10-13T05:10:51;100741.69;;;13.59;100.00
75646;BME280;64237;52.438;13.240;2023-10-13T05:13:35;100745.03;;;13.61;100.00
75646;BME280;64237;52.438;13.240;2023-10-13T05:16:19;100751.19;;;13.63;100.00
75646;BME280;64237;52.438;13.240;2023-10-13T05:19:03;100746.16;;;13.65;100.00
75646;BME280;64237;52.438;13.240;2023-10-13T05:21:47;100731.16;;;14.35;100.00
75646;BME280;64237;52.438;13.240;2023-10-13T05:24:31;100736.16;;;16.09;100.00
75646;BME280;64237;52.438;13.240;2023-10-13T05:27:15;100722.75;;;16.11;100.00
75646;BME280;64237;52.438;13.240;2023-10-13T05:29:59;100732.75;;;15.46;100.00
75646;BME280;64237;52.438;13.240;2023-10-13T05:32:43;100736.47;;;14.94;100.00
75646;BME280;64237;52.438;13.240;2023-10-13T05:35:27;100731.16;;;14.35;100.00
75646;BME280;64237;52.438;13.240;2023-10-13T05:38:11;100736.88;;;14.19;100.00
75646;BME280;64237;52.438;13.240;2023-10-13T05:40:59;100735.09;;;14.02;100.00
75646;BME280;64237;52.438;13.240;2023-10-13T05:43:44;100735.31;;;13.96;100.00
75646;BME280;64237;52.438;13.240;2023-10-13T05:46:28;100740.31;;;13.94;100.00
75646;BME280;64237;52.438;13.240;2023-10-13T05:49:06;100750.59;;;13.93;100.00
75646;BME280;64237;52.438;13.240;2023-10-13T05:51:37;100759.78;;;13.94;100.00
75646;BME280;64237;52.438;13.240;2023-10-13T05:54:03;100743.09;;;13.94;100.00
75646;BME280;64237;52.438;13.240;2023-10-13T05:56:49;100729.19;;;13.94;100.00
75646;BME280;64237;52.438;13.240;2023-10-13T05:59:36;100735.84;;;13.93;100.00
75646;BME280;64237;52.438;13.240;2023-10-13T06:02:21;100730.81;;;13.90;100.00
75646;BME280;64237;52.438;13.240;2023-10-13T06:05:06;100722.47;;;13.85;100.00
75646;BME280;64237;52.438;13.240;2023-10-13T06:07:51;100730.28;;;13.93;100.00
75646;BME280;64237;52.438;13.240;2023-10-13T06:10:35;100712.50;;;13.94;100.00
75646;BME280;64237;52.438;13.240;2023-10-13T06:13:19;100720.94;;;14.04;100.00
75646;BME280;64237;52.438;13.240;2023-10-13T06:18:51;100715.44;;;14.14;100.00
75646;BME280;64237;52.438;13.240;2023-10-13T06:21:35;100718.25;;;14.19;100.00
75646;BME280;64237;52.438;13.240;2023-10-13T06:24:19;100712.09;;;14.17;100.00
75646;BME280;64237;52.438;13.240;2023-10-13T06:27:02;100706.25;;;14.14;100.00
75646;BME280;64237;52.438;13.240;2023-10-13T06:29:46;100716.31;;;14.20;100.00
75646;BME280;64237;52.438;13.240;2023-10-13T06:32:12;100706.50;;;14.12;100.00
75646;BME280;64237;52.438;13.240;2023-10-13T06:34:38;100723.50;;;14.16;100.00
75646;BME280;64237;52.438;13.240;2023-10-13T06:37:10;100715.97;;;14.11;100.00
75646;BME280;64237;52.438;13.240;2023-10-13T06:39:54;100703.47;;;14.14;100.00
75646;BME280;64237;52.438;13.240;2023-10-13T06:42:27;100712.38;;;14.16;100.00
75646;BME280;64237;52.438;13.240;2023-10-13T06:44:56;100711.00;;;14.18;100.00
75646;BME280;64237;52.438;13.240;2023-10-13T06:47:24;100712.72;;;14.24;100.00
75646;BME280;64237;52.438;13.240;2023-10-13T06:49:50;100712.31;;;14.43;100.00
75646;BME280;64237;52.438;13.240;2023-10-13T06:52:22;100714.56;;;14.51;100.00
75646;BME280;64237;52.438;13.240;2023-10-13T06:54:52;100701.78;;;14.55;100.00
75646;BME280;64237;52.438;13.240;2023-10-13T06:57:18;100713.00;;;14.70;100.00
75646;BME280;64237;52.438;13.240;2023-10-13T06:59:47;100705.78;;;14.79;100.00
75646;BME280;64237;52.438;13.240;2023-10-13T07:02:12;100709.75;;;14.88;100.00
75646;BME280;64237;52.438;13.240;2023-10-13T07:04:50;100705.84;;;14.89;100.00
75646;BME280;64237;52.438;13.240;2023-10-13T07:07:32;100710.91;;;15.07;100.00
75646;BME280;64237;52.438;13.240;2023-10-13T07:09:58;100712.63;;;15.14;100.00
75646;BME280;64237;52.438;13.240;2023-10-13T07:12:24;100708.72;;;15.15;100.00
75646;BME280;64237;52.438;13.240;2023-10-13T07:14:51;100707.59;;;15.21;100.00
75646;BME280;64237;52.438;13.240;2023-10-13T07:17:18;100698.41;;;15.25;100.00
75646;BME280;64237;52.438;13.240;2023-10-13T07:19:51;100710.97;;;15.33;100.00
75646;BME280;64237;52.438;13.240;2023-10-13T07:22:24;100704.56;;;15.32;100.00
75646;BME280;64237;52.438;13.240;2023-10-13T07:24:52;100703.75;;;15.37;100.00
75646;BME280;64237;52.438;13.240;2023-10-13T07:27:19;100710.16;;;15.42;100.00
75646;BME280;64237;52.438;13.240;2023-10-13T07:29:52;100698.19;;;15.52;100.00
75646;BME280;64237;52.438;13.240;2023-10-13T07:32:36;100699.59;;;15.60;100.00
75646;BME280;64237;52.438;13.240;2023-10-13T07:35:01;100695.44;;;15.57;100.00
75646;BME280;64237;52.438;13.240;2023-10-13T07:37:32;100693.75;;;15.97;100.00
75646;BME280;64237;52.438;13.240;2023-10-13T07:39:58;100688.09;;;16.27;100.00
75646;BME280;64237;52.438;13.240;2023-10-13T07:42:25;100692.34;;;16.09;100.00
75646;BME280;64237;52.438;13.240;2023-10-13T07:44:57;100685.38;;;16.02;100.00
75646;BME280;64237;52.438;13.240;2023-10-13T07:47:23;100677.00;;;15.97;100.00
75646;BME280;64237;52.438;13.240;2023-10-13T07:49:51;100690.41;;;15.95;100.00
75646;BME280;64237;52.438;13.240;2023-10-13T07:52:17;100686.22;;;15.97;100.00
75646;BME280;64237;52.438;13.240;2023-10-13T07:54:46;100695.44;;;15.98;100.00
75646;BME280;64237;52.438;13.240;2023-10-13T07:57:17;100683.16;;;15.99;100.00
75646;BME280;64237;52.438;13.240;2023-10-13T07:59:42;100676.47;;;16.00;100.00
75646;BME280;64237;52.438;13.240;2023-10-13T08:02:17;100678.13;;;16.01;100.00
75646;BME280;64237;52.438;13.240;2023-10-13T08:05:02;100663.06;;;16.02;100.00
75646;BME280;64237;52.438;13.240;2023-10-13T08:07:30;100673.66;;;16.00;100.00
75646;BME280;64237;52.438;13.240;2023-10-13T08:09:56;100665.28;;;16.00;100.00
75646;BME280;64237;52.438;13.240;2023-10-13T08:12:24;100656.63;;;16.06;100.00
75646;BME280;64237;52.438;13.240;2023-10-13T08:14:50;100673.06;;;16.13;100.00
75646;BME280;64237;52.438;13.240;2023-10-13T08:17:34;100659.13;;;16.23;100.00
75646;BME280;64237;52.438;13.240;2023-10-13T08:20:00;100663.53;;;16.24;100.00
75646;BME280;64237;52.438;13.240;2023-10-13T08:22:36;100651.81;;;16.32;100.00
75646;BME280;64237;52.438;13.240;2023-10-13T08:25:04;100655.44;;;16.33;100.00
75646;BME280;64237;52.438;13.240;2023-10-13T08:27:48;100659.63;;;16.40;100.00
75646;BME280;64237;52.438;13.240;2023-10-13T08:30:15;100656.25;;;16.43;100.00
75646;BME280;64237;52.438;13.240;2023-10-13T08:32:56;100658.44;;;16.46;100.00
75646;BME280;64237;52.438;13.240;2023-10-13T08:35:25;100639.78;;;16.42;100.00
75646;BME280;64237;52.438;13.240;2023-10-13T08:38:01;100627.72;;;16.46;100.00
75646;BME280;64237;52.438;13.240;2023-10-13T08:40:30;100634.72;;;16.49;100.00
75646;BME280;64237;52.438;13.240;2023-10-13T08:43:14;100626.03;;;16.51;100.00
75646;BME280;64237;52.438;13.240;2023-10-13T08:45:42;100622.69;;;16.49;100.00
75646;BME280;64237;52.438;13.240;2023-10-13T08:48:09;100624.91;;;16.57;100.00
75646;BME280;64237;52.438;13.240;2023-10-13T08:50:48;100627.16;;;16.55;100.00
75646;BME280;64237;52.438;13.240;2023-10-13T08:56:06;100615.41;;;16.58;100.00
75646;BME280;64237;52.438;13.240;2023-10-13T08:58:56;100613.75;;;16.57;100.00
75646;BME280;64237;52.438;13.240;2023-10-13T09:01:37;100616.50;;;16.62;100.00
75646;BME280;64237;52.438;13.240;2023-10-13T09:04:24;100608.72;;;16.64;100.00
75646;BME280;64237;52.438;13.240;2023-10-13T09:07:00;100610.31;;;16.75;100.00
75646;BME280;64237;52.438;13.240;2023-10-13T09:12:24;100595.78;;;16.73;100.00
75646;BME280;64237;52.438;13.240;2023-10-13T09:15:04;100608.06;;;16.77;100.00
75646;BME280;64237;52.438;13.240;2023-10-13T09:17:43;100601.09;;;16.74;100.00
75646;BME280;64237;52.438;13.240;2023-10-13T09:20:29;100603.63;;;16.71;100.00
75646;BME280;64237;52.438;13.240;2023-10-13T09:23:11;100598.59;;;16.73;100.00
75646;BME280;64237;52.438;13.240;2023-10-13T09:26:05;100585.47;;;16.73;100.00
75646;BME280;64237;52.438;13.240;2023-10-13T09:28:34;100585.19;;;16.70;100.00
75646;BME280;64237;52.438;13.240;2023-10-13T09:31:02;100588.28;;;16.68;100.00
75646;BME280;64237;52.438;13.240;2023-10-13T09:33:29;100583.56;;;16.64;100.00
75646;BME280;64237;52.438;13.240;2023-10-13T09:36:00;100581.88;;;16.63;100.00
75646;BME280;64237;52.438;13.240;2023-10-13T09:38:32;100563.47;;;16.57;100.00
75646;BME280;64237;52.438;13.240;2023-10-13T09:40:58;100563.72;;;16.60;100.00
75646;BME280;64237;52.438;13.240;2023-10-13T09:43:27;100558.44;;;16.59;100.00
75646;BME280;64237;52.438;13.240;2023-10-13T09:46:00;100549.44;;;16.72;100.00
75646;BME280;64237;52.438;13.240;2023-10-13T09:48:36;100547.19;;;16.74;100.00
75646;BME280;64237;52.438;13.240;2023-10-13T09:51:06;100538.25;;;16.72;100.00
75646;BME280;64237;52.438;13.240;2023-10-13T09:53:36;100523.19;;;16.68;100.00
75646;BME280;64237;52.438;13.240;2023-10-13T09:56:11;100533.19;;;16.79;100.00
75646;BME280;64237;52.438;13.240;2023-10-13T09:58:52;100530.28;;;16.94;100.00
75646;BME280;64237;52.438;13.240;2023-10-13T10:01:24;100519.56;;;17.06;100.00
75646;BME280;64237;52.438;13.240;2023-10-13T10:04:10;100523.94;;;17.18;100.00
75646;BME280;64237;52.438;13.240;2023-10-13T10:06:39;100521.44;;;17.16;100.00
75646;BME280;64237;52.438;13.240;2023-10-13T10:09:07;100525.59;;;17.19;100.00
75646;BME280;64237;52.438;13.240;2023-10-13T10:14:40;100519.19;;;17.18;100.00
75646;BME280;64237;52.438;13.240;2023-10-13T10:17:08;100524.50;;;17.14;100.00
75646;BME280;64237;52.438;13.240;2023-10-13T10:19:53;100518.09;;;17.14;100.00
75646;BME280;64237;52.438;13.240;2023-10-13T10:22:28;100518.34;;;17.18;100.00
75646;BME280;64237;52.438;13.240;2023-10-13T10:24:59;100517.84;;;17.10;100.00
75646;BME280;64237;52.438;13.240;2023-10-13T10:27:26;100510.34;;;17.06;100.00
75646;BME280;64237;52.438;13.240;2023-10-13T10:29:54;100527.94;;;17.06;100.00
75646;BME280;64237;52.438;13.240;2023-10-13T10:32:20;100522.94;;;17.03;100.00
75646;BME280;64237;52.438;13.240;2023-10-13T10:34:46;100507.34;;;16.97;100.00
75646;BME280;64237;52.438;13.240;2023-10-13T10:37:12;100505.91;;;17.00;100.00
75646;BME280;64237;52.438;13.240;2023-10-13T10:39:38;100486.13;;;16.91;100.00
75646;BME280;64237;52.438;13.240;2023-10-13T10:42:14;100488.91;;;16.96;100.00
75646;BME280;64237;52.438;13.240;2023-10-13T10:44:57;100483.22;;;17.06;100.00
75646;BME280;64237;52.438;13.240;2023-10-13T10:47:31;100484.34;;;17.05;100.00
75646;BME280;64237;52.438;13.240;2023-10-13T10:49:57;100487.16;;;17.05;100.00
75646;BME280;64237;52.438;13.240;2023-10-13T10:52:23;100475.72;;;17.02;100.00
75646;BME280;64237;52.438;13.240;2023-10-13T10:54:59;100474.28;;;17.04;100.00
75646;BME280;64237;52.438;13.240;2023-10-13T10:57:24;100456.34;;;17.10;100.00
75646;BME280;64237;52.438;13.240;2023-10-13T10:59:54;100459.91;;;17.16;100.00
75646;BME280;64237;52.438;13.240;2023-10-13T11:02:40;100456.25;;;17.21;100.00
75646;BME280;64237;52.438;13.240;2023-10-13T11:05:06;100451.78;;;17.20;100.00
75646;BME280;64237;52.438;13.240;2023-10-13T11:07:34;100436.94;;;17.24;100.00
75646;BME280;64237;52.438;13.240;2023-10-13T11:10:10;100446.16;;;17.25;100.00
75646;BME280;64237;52.438;13.240;2023-10-13T11:12:58;100457.50;;;17.33;100.00
75646;BME280;64237;52.438;13.240;2023-10-13T11:15:47;100433.72;;;17.36;100.00
75646;BME280;64237;52.438;13.240;2023-10-13T11:18:14;100429.75;;;17.42;100.00
75646;BME280;64237;52.438;13.240;2023-10-13T11:20:46;100432.00;;;17.40;100.00
75646;BME280;64237;52.438;13.240;2023-10-13T11:23:15;100444.75;;;17.51;100.00
75646;BME280;64237;52.438;13.240;2023-10-13T11:25:41;100440.00;;;17.52;100.00
75646;BME280;64237;52.438;13.240;2023-10-13T11:28:18;100426.88;;;17.47;100.00
75646;BME280;64237;52.438;13.240;2023-10-13T11:30:53;100425.22;;;17.46;100.00
75646;BME280;64237;52.438;13.240;2023-10-13T11:33:22;100416.28;;;17.44;100.00
75646;BME280;64237;52.438;13.240;2023-10-13T11:40:52;100393.19;;;17.57;100.00
75646;BME280;64237;52.438;13.240;2023-10-13T11:43:46;100398.19;;;17.60;100.00
75646;BME280;64237;52.438;13.240;2023-10-13T11:46:23;100399.38;;;17.54;100.00
75646;BME280;64237;52.438;13.240;2023-10-13T11:51:34;100394.53;;;17.65;100.00
75646;BME280;64237;52.438;13.240;2023-10-13T11:54:03;100377.97;;;17.68;100.00
75646;BME280;64237;52.438;13.240;2023-10-13T11:56:28;100388.00;;;17.74;100.00
75646;BME280;64237;52.438;13.240;2023-10-13T11:58:54;100373.38;;;17.77;100.00
75646;BME280;64237;52.438;13.240;2023-10-13T12:01:26;100364.13;;;17.77;100.00
75646;BME280;64237;52.438;13.240;2023-10-13T12:04:12;100360.09;;;17.88;100.00
75646;BME280;64237;52.438;13.240;2023-10-13T12:06:56;100363.34;;;17.95;100.00
75646;BME280;64237;52.438;13.240;2023-10-13T12:09:44;100359.31;;;18.01;100.00
75646;BME280;64237;52.438;13.240;2023-10-13T12:12:22;100363.94;;;18.11;100.00
75646;BME280;64237;52.438;13.240;2023-10-13T12:14:48;100363.78;;;18.21;100.00
75646;BME280;64237;52.438;13.240;2023-10-13T12:17:27;100348.50;;;18.32;100.00
75646;BME280;64237;52.438;13.240;2023-10-13T12:20:02;100345.81;;;18.41;100.00
75646;BME280;64237;52.438;13.240;2023-10-13T12:22:34;100343.75;;;18.46;100.00
75646;BME280;64237;52.438;13.240;2023-10-13T12:25:16;100338.63;;;18.54;100.00
75646;BME280;64237;52.438;13.240;2023-10-13T12:27:52;100328.84;;;18.51;100.00
75646;BME280;64237;52.438;13.240;2023-10-13T12:30:22;100336.94;;;18.53;100.00
75646;BME280;64237;52.438;13.240;2023-10-13T12:33:00;100323.69;;;18.58;100.00
75646;BME280;64237;52.438;13.240;2023-10-13T12:35:33;100327.25;;;18.64;100.00
75646;BME280;64237;52.438;13.240;2023-10-13T12:38:32;100321.25;;;18.70;100.00
75646;BME280;64237;52.438;13.240;2023-10-13T12:41:09;100320.84;;;18.77;100.00
75646;BME280;64237;52.438;13.240;2023-10-13T12:43:53;100302.59;;;18.93;100.00
75646;BME280;64237;52.438;13.240;2023-10-13T12:46:38;100299.59;;;19.03;100.00
75646;BME280;64237;52.438;13.240;2023-10-13T12:49:22;100294.31;;;19.15;100.00
75646;BME280;64237;52.438;13.240;2023-10-13T12:52:14;100292.22;;;19.21;100.00
75646;BME280;64237;52.438;13.240;2023-10-13T12:54:51;100286.00;;;19.24;100.00
75646;BME280;64237;52.438;13.240;2023-10-13T12:57:26;100303.00;;;19.28;100.00
75646;BME280;64237;52.438;13.240;2023-10-13T12:59:52;100285.34;;;19.27;100.00
75646;BME280;64237;52.438;13.240;2023-10-13T13:02:23;100274.34;;;19.31;100.00
75646;BME280;64237;52.438;13.240;2023-10-13T13:04:55;100273.63;;;19.39;100.00
75646;BME280;64237;52.438;13.240;2023-10-13T13:07:31;100261.47;;;19.43;100.00
75646;BME280;64237;52.438;13.240;2023-10-13T13:09:57;100258.66;;;19.57;100.00
75646;BME280;64237;52.438;13.240;2023-10-13T13:12:26;100255.84;;;19.57;100.00
75646;BME280;64237;52.438;13.240;2023-10-13T13:14:56;100252.88;;;19.76;100.00
75646;BME280;64237;52.438;13.240;2023-10-13T13:17:22;100250.91;;;19.76;100.00
75646;BME280;64237;52.438;13.240;2023-10-13T13:19:47;100245.78;;;19.78;100.00
75646;BME280;64237;52.438;13.240;2023-10-13T13:22:12;100259.47;;;19.94;100.00
75646;BME280;64237;52.438;13.240;2023-10-13T13:24:42;100245.81;;;20.01;100.00
75646;BME280;64237;52.438;13.240;2023-10-13T13:27:14;100247.47;;;20.02;100.00
75646;BME280;64237;52.438;13.240;2023-10-13T13:29:44;100240.06;;;20.06;100.00
75646;BME280;64237;52.438;13.240;2023-10-13T13:32:10;100239.69;;;19.99;100.00